createdAt,value
2017-10-12T00:01:25.646Z,82.10
2017-10-12T00:03:54.218Z,81.20
2017-10-12T00:06:24.055Z,81.20
2017-10-12T00:08:52.962Z,81.10
2017-10-12T00:11:21.610Z,81.10
2017-10-12T00:13:50.211Z,81.10
2017-10-12T00:16:18.870Z,81.10
2017-10-12T00:18:47.184Z,81.20
2017-10-12T00:21:16.035Z,81.20
2017-10-12T00:23:44.834Z,81.10
2017-10-12T00:26:14.071Z,81.00
2017-10-12T00:28:42.846Z,81.10
2017-10-12T00:31:11.366Z,80.80
2017-10-12T00:33:40.407Z,80.90
2017-10-12T00:36:08.990Z,80.70
2017-10-12T00:38:37.999Z,80.60
2017-10-12T00:41:07.239Z,80.60
2017-10-12T00:43:37.111Z,80.60
2017-10-12T00:46:06.095Z,80.50
2017-10-12T00:48:34.458Z,80.60
2017-10-12T00:51:03.377Z,80.60
2017-10-12T00:53:32.147Z,80.70
2017-10-12T00:56:01.037Z,80.50
2017-10-12T00:58:29.671Z,80.80
2017-10-12T01:00:58.626Z,80.70
2017-10-12T01:03:28.307Z,80.70
2017-10-12T01:05:56.871Z,80.50
2017-10-12T01:08:27.128Z,81.20
2017-10-12T01:10:55.935Z,80.60
2017-10-12T01:13:24.984Z,81.00
2017-10-12T01:15:54.532Z,82.70
2017-10-12T01:18:22.851Z,83.30
2017-10-12T01:20:51.678Z,83.40
2017-10-12T01:23:20.493Z,84.80
2017-10-12T01:25:49.139Z,86.30
2017-10-12T01:28:18.547Z,87.30
2017-10-12T01:30:48.135Z,89.10
2017-10-12T01:33:17.169Z,89.00
2017-10-12T01:35:45.579Z,89.60
2017-10-12T01:38:15.111Z,90.20
2017-10-12T01:40:44.590Z,91.80
2017-10-12T01:43:13.323Z,91.40
2017-10-12T01:45:43.007Z,93.00
2017-10-12T01:48:12.302Z,93.00
2017-10-12T01:50:40.717Z,93.70
2017-10-12T01:53:09.351Z,94.20
2017-10-12T01:55:38.546Z,94.80
2017-10-12T01:58:07.233Z,95.20
2017-10-12T02:00:35.759Z,95.30
2017-10-12T02:03:05.192Z,95.70
2017-10-12T02:05:34.458Z,95.60
2017-10-12T02:08:03.420Z,95.70
2017-10-12T02:10:32.299Z,95.80
2017-10-12T02:13:00.992Z,96.10
2017-10-12T02:15:29.956Z,96.40
2017-10-12T02:17:59.106Z,96.50
2017-10-12T02:20:28.029Z,96.50
2017-10-12T02:22:57.055Z,96.20
2017-10-12T02:25:26.177Z,96.20
2017-10-12T02:27:55.095Z,96.30
2017-10-12T02:30:23.934Z,97.10
2017-10-12T02:32:52.533Z,96.30
2017-10-12T02:35:21.169Z,96.30
2017-10-12T02:37:50.003Z,96.70
2017-10-12T02:40:19.135Z,97.00
2017-10-12T02:42:47.922Z,97.00
2017-10-12T02:45:17.152Z,96.70
2017-10-12T02:47:45.503Z,96.60
2017-10-12T02:50:14.863Z,96.50
2017-10-12T02:52:44.374Z,96.60
2017-10-12T02:55:13.419Z,96.50
2017-10-12T02:57:41.775Z,96.50
2017-10-12T03:00:10.615Z,96.40
2017-10-12T03:02:39.393Z,96.40
2017-10-12T03:05:08.699Z,96.30
2017-10-12T03:07:37.623Z,96.20
2017-10-12T03:10:06.174Z,96.10
2017-10-12T03:12:35.164Z,96.00
2017-10-12T03:15:04.466Z,95.90
2017-10-12T03:17:32.967Z,96.10
2017-10-12T03:20:01.763Z,96.10
2017-10-12T03:22:30.401Z,96.00
2017-10-12T03:24:58.955Z,96.10
2017-10-12T03:27:27.899Z,95.90
2017-10-12T03:29:57.526Z,96.00
2017-10-12T03:32:26.391Z,95.80
2017-10-12T03:34:54.706Z,95.80
2017-10-12T03:37:23.267Z,95.90
2017-10-12T03:39:52.186Z,95.80
2017-10-12T03:42:20.497Z,96.00
2017-10-12T03:44:50.366Z,95.70
2017-10-12T03:47:18.734Z,95.50
2017-10-12T03:49:47.706Z,95.50
2017-10-12T03:52:17.038Z,95.30
2017-10-12T03:54:45.551Z,95.10
2017-10-12T03:57:14.362Z,95.00
2017-10-12T03:59:43.164Z,95.00
2017-10-12T04:02:11.528Z,94.80
2017-10-12T04:04:40.023Z,95.10
2017-10-12T04:07:08.794Z,95.30
2017-10-12T04:09:38.135Z,95.10
2017-10-12T04:12:06.457Z,95.00
2017-10-12T04:14:35.427Z,95.00
2017-10-12T04:17:03.883Z,95.00
2017-10-12T04:19:32.648Z,95.00
2017-10-12T04:22:01.651Z,94.90
2017-10-12T04:24:30.369Z,94.60
2017-10-12T04:26:58.719Z,94.60
2017-10-12T04:29:27.683Z,94.50
2017-10-12T04:31:56.656Z,94.60
2017-10-12T04:34:25.259Z,94.60
2017-10-12T04:36:55.446Z,94.70
2017-10-12T04:39:24.619Z,94.80
2017-10-12T04:41:53.431Z,94.90
2017-10-12T04:44:22.155Z,95.00
2017-10-12T04:46:51.878Z,95.00
2017-10-12T04:49:20.875Z,94.80
2017-10-12T04:51:49.555Z,94.70
2017-10-12T04:54:18.367Z,94.70
2017-10-12T04:56:47.035Z,94.60
2017-10-12T04:59:15.882Z,95.00
2017-10-12T05:01:45.043Z,94.80
2017-10-12T05:04:14.277Z,94.40
2017-10-12T05:06:43.165Z,94.10
2017-10-12T05:09:11.808Z,94.00
2017-10-12T05:11:40.999Z,92.80
2017-10-12T05:14:09.471Z,92.70
2017-10-12T05:16:38.087Z,92.50
2017-10-12T05:19:06.904Z,92.40
2017-10-12T05:21:35.691Z,92.50
2017-10-12T05:24:04.291Z,92.10
2017-10-12T05:26:33.076Z,92.20
2017-10-12T05:29:01.502Z,91.90
2017-10-12T05:31:29.861Z,91.40
2017-10-12T05:33:59.273Z,91.20
2017-10-12T05:36:28.378Z,91.10
2017-10-12T05:38:57.130Z,91.00
2017-10-12T05:41:25.918Z,91.00
2017-10-12T05:43:55.098Z,91.30
2017-10-12T05:46:23.564Z,90.30
2017-10-12T05:48:53.039Z,90.10
2017-10-12T05:51:21.899Z,90.00
2017-10-12T05:53:50.541Z,89.90
2017-10-12T05:56:19.075Z,89.90
2017-10-12T05:58:47.590Z,89.80
2017-10-12T06:01:17.086Z,89.60
2017-10-12T06:03:45.400Z,89.50
2017-10-12T06:06:13.958Z,89.20
2017-10-12T06:08:43.549Z,88.90
2017-10-12T06:11:13.013Z,87.70
2017-10-12T06:13:42.127Z,86.80
2017-10-12T06:16:10.806Z,86.50
2017-10-12T06:18:39.498Z,86.10
2017-10-12T06:21:09.070Z,85.60
2017-10-12T06:23:37.514Z,85.20
2017-10-12T06:26:05.887Z,85.10
2017-10-12T06:28:34.927Z,85.30
2017-10-12T06:31:04.071Z,85.60
2017-10-12T06:33:32.666Z,85.20
2017-10-12T06:36:01.950Z,85.00
2017-10-12T06:38:31.118Z,85.10
2017-10-12T06:41:00.243Z,84.50
2017-10-12T06:43:29.700Z,83.90
2017-10-12T06:45:58.826Z,83.80
2017-10-12T06:48:27.692Z,83.00
2017-10-12T06:50:56.553Z,82.90
2017-10-12T06:53:25.364Z,82.50
2017-10-12T06:55:54.128Z,81.90
2017-10-12T06:58:22.936Z,81.70
2017-10-12T07:00:51.528Z,81.70
2017-10-12T07:03:20.151Z,80.70
2017-10-12T07:05:49.106Z,80.80
2017-10-12T07:08:17.588Z,80.40
2017-10-12T07:10:46.796Z,79.80
2017-10-12T07:13:15.386Z,79.70
2017-10-12T07:15:44.927Z,79.40
2017-10-12T07:18:14.172Z,78.40
2017-10-12T07:20:42.621Z,77.90
2017-10-12T07:23:11.698Z,77.30
2017-10-12T07:25:41.166Z,75.50
2017-10-12T07:28:09.930Z,75.50
2017-10-12T07:30:38.787Z,75.60
2017-10-12T07:33:07.381Z,75.40
2017-10-12T07:35:36.151Z,75.10
2017-10-12T07:38:04.974Z,75.10
2017-10-12T07:40:33.927Z,74.70
2017-10-12T07:43:02.280Z,74.50
2017-10-12T07:45:30.807Z,74.80
2017-10-12T07:47:59.585Z,74.20
2017-10-12T07:50:28.384Z,74.10
2017-10-12T07:52:56.809Z,74.40
2017-10-12T07:55:25.382Z,73.70
2017-10-12T07:57:54.858Z,73.00
2017-10-12T08:00:24.285Z,73.00
2017-10-12T08:02:53.188Z,72.50
2017-10-12T08:05:22.489Z,72.60
2017-10-12T08:07:51.995Z,72.00
2017-10-12T08:10:21.371Z,71.90
2017-10-12T08:12:50.572Z,72.50
2017-10-12T08:15:19.128Z,72.50
2017-10-12T08:17:48.362Z,72.50
2017-10-12T08:20:17.255Z,72.30
2017-10-12T08:22:45.644Z,71.80
2017-10-12T08:25:15.002Z,71.60
2017-10-12T08:27:44.911Z,70.50
2017-10-12T08:30:14.575Z,70.60
2017-10-12T08:32:43.124Z,70.60
2017-10-12T08:35:11.540Z,70.50
2017-10-12T08:37:39.895Z,69.90
2017-10-12T08:40:08.728Z,69.60
2017-10-12T08:42:38.005Z,69.90
2017-10-12T08:45:06.359Z,69.90
2017-10-12T08:47:35.071Z,69.60
2017-10-12T08:50:03.736Z,69.30
2017-10-12T08:52:32.769Z,68.10
2017-10-12T08:55:01.128Z,67.30
2017-10-12T08:57:30.151Z,67.20
2017-10-12T08:59:59.613Z,66.30
2017-10-12T09:02:28.864Z,66.30
2017-10-12T09:04:58.251Z,65.30
2017-10-12T09:07:26.853Z,65.20
2017-10-12T09:09:56.271Z,66.20
2017-10-12T09:12:24.717Z,66.00
2017-10-12T09:14:54.699Z,64.60
2017-10-12T09:17:23.334Z,64.60
2017-10-12T09:19:52.052Z,65.20
2017-10-12T09:22:20.340Z,64.20
2017-10-12T09:24:48.742Z,63.90
2017-10-12T09:27:17.582Z,63.00
2017-10-12T09:29:45.989Z,63.00
2017-10-12T09:32:15.279Z,62.60
2017-10-12T09:34:44.151Z,62.60
2017-10-12T09:37:12.732Z,61.30
2017-10-12T09:39:42.068Z,60.20
2017-10-12T09:42:10.682Z,60.00
2017-10-12T09:44:39.271Z,60.50
2017-10-12T09:47:09.453Z,61.50
2017-10-12T09:49:38.987Z,61.50
2017-10-12T09:52:08.081Z,61.10
2017-10-12T09:54:37.080Z,60.70
2017-10-12T09:57:06.482Z,60.70
2017-10-12T09:59:34.859Z,60.20
2017-10-12T10:02:03.820Z,59.90
2017-10-12T10:04:32.961Z,59.40
2017-10-12T10:07:02.005Z,59.30
2017-10-12T10:09:30.346Z,59.60
2017-10-12T10:11:58.699Z,58.00
2017-10-12T10:14:28.121Z,57.90
2017-10-12T10:16:57.400Z,57.80
2017-10-12T10:19:26.031Z,58.50
2017-10-12T10:21:54.670Z,58.50
2017-10-12T10:24:23.426Z,57.10
2017-10-12T10:26:51.908Z,56.40
2017-10-12T10:29:25.507Z,56.10
2017-10-12T10:31:54.775Z,56.10
2017-10-12T10:34:23.155Z,56.50
2017-10-12T10:36:52.635Z,55.40
2017-10-12T10:39:21.296Z,55.30
2017-10-12T10:41:50.383Z,56.30
2017-10-12T10:44:18.919Z,56.30
2017-10-12T10:46:47.359Z,56.80
2017-10-12T10:49:15.879Z,56.70
2017-10-12T10:51:44.627Z,57.00
2017-10-12T10:54:12.927Z,55.80
2017-10-12T10:56:41.920Z,54.60
2017-10-12T10:59:10.781Z,54.10
2017-10-12T11:01:39.492Z,54.50
2017-10-12T11:04:08.386Z,55.20
2017-10-12T11:06:36.659Z,55.10
2017-10-12T11:09:05.443Z,55.70
2017-10-12T11:11:34.103Z,55.20
2017-10-12T11:14:02.771Z,55.30
2017-10-12T11:16:31.194Z,54.70
2017-10-12T11:18:59.851Z,55.10
2017-10-12T11:21:28.463Z,55.40
2017-10-12T11:23:57.019Z,55.40
2017-10-12T11:26:25.321Z,54.80
2017-10-12T11:28:54.232Z,53.50
2017-10-12T11:31:22.772Z,54.00
2017-10-12T11:33:51.399Z,54.20
2017-10-12T11:36:20.407Z,54.10
2017-10-12T11:38:49.426Z,54.70
2017-10-12T11:41:18.101Z,55.00
2017-10-12T11:43:47.546Z,55.30
2017-10-12T11:46:16.248Z,55.20
2017-10-12T11:48:44.730Z,55.90
2017-10-12T11:51:13.469Z,55.90
2017-10-12T11:53:42.170Z,55.80
2017-10-12T11:56:11.223Z,56.40
2017-10-12T11:58:40.827Z,57.40
2017-10-12T12:01:09.676Z,57.30
2017-10-12T12:03:38.156Z,57.60
2017-10-12T12:06:07.379Z,57.90
2017-10-12T12:08:35.768Z,56.90
2017-10-12T12:11:04.268Z,56.80
2017-10-12T12:13:32.646Z,56.20
2017-10-12T12:16:01.671Z,56.30
2017-10-12T12:18:30.125Z,56.90
2017-10-12T12:20:59.450Z,55.70
2017-10-12T12:23:28.143Z,54.70
2017-10-12T12:25:56.514Z,53.90
2017-10-12T12:28:25.122Z,53.50
2017-10-12T12:30:53.767Z,53.40
2017-10-12T12:33:22.253Z,53.40
2017-10-12T12:35:51.546Z,53.10
2017-10-12T12:38:20.118Z,51.70
2017-10-12T12:40:49.351Z,51.20
2017-10-12T12:43:17.878Z,50.70
2017-10-12T12:45:46.644Z,50.60
2017-10-12T12:48:15.683Z,50.60
2017-10-12T12:50:44.618Z,51.10
2017-10-12T12:53:13.391Z,51.80
2017-10-12T12:55:42.224Z,51.50
2017-10-12T12:58:11.390Z,51.50
2017-10-12T13:00:39.929Z,52.10
2017-10-12T13:03:08.515Z,51.40
2017-10-12T13:05:37.140Z,51.50
2017-10-12T13:08:05.978Z,50.70
2017-10-12T13:10:34.416Z,50.60
2017-10-12T13:13:03.159Z,51.00
2017-10-12T13:15:32.638Z,51.30
2017-10-12T13:18:01.016Z,52.00
2017-10-12T13:20:29.911Z,52.60
2017-10-12T13:22:58.754Z,52.50
2017-10-12T13:25:27.019Z,53.20
2017-10-12T13:27:55.658Z,53.70
2017-10-12T13:30:24.123Z,54.20
2017-10-12T13:32:53.122Z,52.80
2017-10-12T13:35:21.451Z,53.40
2017-10-12T13:37:49.954Z,53.40
2017-10-12T13:40:18.570Z,52.90
2017-10-12T13:42:47.130Z,50.70
2017-10-12T13:45:15.590Z,51.10
2017-10-12T13:47:44.536Z,50.90
2017-10-12T13:50:13.151Z,51.10
2017-10-12T13:52:42.728Z,50.60
2017-10-12T13:55:11.294Z,50.50
2017-10-12T13:57:40.464Z,50.30
2017-10-12T14:00:09.145Z,50.80
2017-10-12T14:02:37.979Z,51.00
2017-10-12T14:05:07.523Z,51.60
2017-10-12T14:07:36.055Z,51.90
2017-10-12T14:10:04.580Z,51.40
2017-10-12T14:12:33.518Z,51.10
2017-10-12T14:15:02.453Z,51.30
2017-10-12T14:17:31.008Z,51.80
2017-10-12T14:19:59.999Z,52.10
2017-10-12T14:22:29.126Z,52.10
2017-10-12T14:24:57.629Z,52.60
2017-10-12T14:27:26.655Z,52.00
2017-10-12T14:29:55.035Z,51.70
2017-10-12T14:32:23.799Z,51.50
2017-10-12T14:34:53.316Z,51.20
2017-10-12T14:37:21.955Z,51.20
2017-10-12T14:39:51.311Z,51.70
2017-10-12T14:42:19.910Z,50.70
2017-10-12T14:44:48.627Z,50.50
2017-10-12T14:47:17.255Z,50.30
2017-10-12T14:49:45.846Z,49.90
2017-10-12T14:52:14.454Z,50.00
2017-10-12T14:54:43.942Z,50.30
2017-10-12T14:57:12.665Z,50.20
2017-10-12T14:59:41.392Z,50.50
2017-10-12T15:02:11.361Z,51.10
2017-10-12T15:04:41.004Z,51.00
2017-10-12T15:07:09.841Z,51.40
2017-10-12T15:09:38.602Z,51.80
2017-10-12T15:12:08.060Z,51.70
2017-10-12T15:14:36.711Z,51.60
2017-10-12T15:17:05.842Z,52.20
2017-10-12T15:19:35.694Z,52.30
2017-10-12T15:22:04.751Z,52.60
2017-10-12T15:24:33.563Z,52.50
2017-10-12T15:27:02.397Z,52.70
2017-10-12T15:29:31.467Z,53.60
2017-10-12T15:31:59.821Z,53.00
2017-10-12T15:34:28.147Z,53.20
2017-10-12T15:36:56.799Z,53.00
2017-10-12T15:39:26.373Z,54.10
2017-10-12T15:41:55.332Z,53.60
2017-10-12T15:44:24.275Z,53.60
2017-10-12T15:46:53.418Z,53.70
2017-10-12T15:49:22.084Z,53.20
2017-10-12T15:51:52.015Z,53.40
2017-10-12T15:54:20.362Z,53.30
2017-10-12T15:56:48.969Z,53.50
2017-10-12T15:59:17.863Z,53.80
2017-10-12T16:01:46.285Z,53.10
2017-10-12T16:04:15.275Z,53.40
2017-10-12T16:06:44.264Z,53.90
2017-10-12T16:09:12.611Z,54.00
2017-10-12T16:11:41.328Z,54.50
2017-10-12T16:14:09.998Z,54.60
2017-10-12T16:16:38.863Z,55.20
2017-10-12T16:19:07.891Z,55.90
2017-10-12T16:24:38.623Z,57.70
2017-10-12T16:27:07.255Z,56.80
2017-10-12T16:29:36.048Z,57.20
2017-10-12T16:32:04.366Z,57.40
2017-10-12T16:34:33.106Z,57.70
2017-10-12T16:37:02.376Z,58.20
2017-10-12T16:39:31.256Z,58.50
2017-10-12T16:41:59.936Z,58.70
2017-10-12T16:44:28.606Z,58.90
2017-10-12T16:46:57.721Z,59.20
2017-10-12T16:49:26.500Z,59.10
2017-10-12T16:51:55.973Z,59.20
2017-10-12T16:54:24.826Z,59.10
2017-10-12T16:56:53.143Z,59.30
2017-10-12T16:59:21.561Z,59.50
2017-10-12T17:01:49.931Z,59.80
2017-10-12T17:04:18.267Z,59.70
2017-10-12T17:06:46.948Z,59.60
2017-10-12T17:09:16.193Z,59.60
2017-10-12T17:11:45.484Z,59.50
2017-10-12T17:14:13.864Z,59.60
2017-10-12T17:16:43.315Z,60.20
2017-10-12T17:19:12.314Z,60.10
2017-10-12T17:21:41.199Z,60.30
2017-10-12T17:24:09.708Z,60.40
2017-10-12T17:26:38.169Z,60.70
2017-10-12T17:29:06.488Z,60.90
2017-10-12T17:31:35.218Z,61.10
2017-10-12T17:34:04.303Z,61.50
2017-10-12T17:36:33.139Z,61.80
2017-10-12T17:39:01.962Z,62.00
2017-10-12T17:41:31.427Z,62.60
2017-10-12T17:43:59.729Z,62.60
2017-10-12T17:46:29.001Z,63.00
2017-10-12T17:51:25.867Z,63.30
2017-10-12T17:53:55.247Z,63.60
2017-10-12T17:56:24.361Z,64.00
2017-10-12T17:58:52.947Z,64.00
2017-10-12T18:01:21.528Z,64.30
2017-10-12T18:03:50.018Z,64.50
2017-10-12T18:06:18.571Z,64.80
2017-10-12T18:08:46.871Z,65.00
2017-10-12T18:11:15.475Z,65.50
2017-10-12T18:13:44.107Z,65.90
2017-10-12T18:16:12.982Z,66.20
2017-10-12T18:18:41.299Z,66.50
2017-10-12T18:21:10.468Z,66.70
2017-10-12T18:23:39.024Z,67.00
2017-10-12T18:26:07.575Z,67.40
2017-10-12T18:28:36.255Z,67.70
2017-10-12T18:31:04.936Z,68.00
2017-10-12T18:33:33.634Z,69.30
2017-10-12T18:36:02.206Z,68.90
2017-10-12T18:38:30.807Z,69.20
2017-10-12T18:40:59.526Z,69.30
2017-10-12T18:43:28.616Z,69.90
2017-10-12T18:45:58.095Z,70.10
2017-10-12T18:48:27.134Z,69.90
2017-10-12T18:50:55.550Z,70.40
2017-10-12T18:53:24.342Z,70.50
2017-10-12T18:55:52.969Z,70.60
2017-10-12T18:58:22.203Z,70.80
2017-10-12T19:00:51.481Z,71.00
2017-10-12T19:03:20.117Z,71.30
2017-10-12T19:05:49.211Z,71.60
2017-10-12T19:08:18.071Z,71.60
2017-10-12T19:10:46.557Z,71.80
2017-10-12T19:13:15.263Z,71.90
2017-10-12T19:15:44.131Z,72.10
2017-10-12T19:18:12.699Z,72.50
2017-10-12T19:20:41.330Z,72.80
2017-10-12T19:23:10.061Z,73.10
2017-10-12T19:25:39.540Z,73.60
2017-10-12T19:30:37.109Z,73.80
2017-10-12T19:35:34.044Z,74.30
2017-10-12T19:38:02.422Z,74.30
2017-10-12T19:40:30.703Z,74.50
2017-10-12T19:42:59.265Z,74.80
2017-10-12T19:45:28.191Z,74.90
2017-10-12T19:47:57.031Z,75.50
2017-10-12T19:50:26.859Z,75.70
2017-10-12T19:52:56.665Z,75.50
2017-10-12T19:55:25.529Z,75.40
2017-10-12T19:57:54.132Z,75.60
2017-10-12T20:00:23.078Z,75.50
2017-10-12T20:02:52.694Z,75.80
2017-10-12T20:05:21.327Z,75.80
2017-10-12T20:07:50.856Z,76.00
2017-10-12T20:10:20.493Z,76.10
2017-10-12T20:12:50.151Z,76.20
2017-10-12T20:15:18.875Z,76.20
2017-10-12T20:17:48.039Z,76.30
2017-10-12T20:20:17.170Z,76.10
2017-10-12T20:22:46.035Z,75.90
2017-10-12T20:25:14.879Z,75.90
2017-10-12T20:27:44.644Z,76.00
2017-10-12T20:30:13.449Z,76.00
2017-10-12T20:32:43.060Z,75.90
2017-10-12T20:35:12.231Z,75.90
2017-10-12T20:37:41.046Z,76.00
2017-10-12T20:40:09.827Z,76.10
2017-10-12T20:42:38.471Z,76.10
2017-10-12T20:45:08.427Z,76.20
2017-10-12T20:47:37.041Z,76.30
2017-10-12T20:50:05.447Z,76.50
2017-10-12T20:52:34.207Z,76.60
2017-10-12T20:57:31.973Z,76.70
2017-10-12T21:00:00.707Z,76.90
2017-10-12T21:04:59.304Z,77.30
2017-10-12T21:07:28.578Z,77.50
2017-10-12T21:09:57.208Z,77.40
2017-10-12T21:12:27.171Z,77.80
2017-10-12T21:14:55.478Z,77.80
2017-10-12T21:17:24.270Z,78.00
2017-10-12T21:19:53.199Z,78.10
2017-10-12T21:22:21.908Z,78.40
2017-10-12T21:24:50.544Z,78.50
2017-10-12T21:27:19.254Z,78.70
2017-10-12T21:29:47.868Z,78.80
2017-10-12T21:32:17.065Z,78.80
2017-10-12T21:34:46.020Z,79.00
2017-10-12T21:37:14.327Z,79.10
2017-10-12T21:39:42.743Z,79.10
2017-10-12T21:42:11.878Z,79.20
2017-10-12T21:44:41.298Z,79.30
2017-10-12T21:47:10.391Z,79.30
2017-10-12T21:49:38.890Z,79.10
2017-10-12T21:52:07.775Z,79.20
2017-10-12T21:54:36.503Z,79.30
2017-10-12T21:57:06.613Z,78.90
2017-10-12T21:59:35.689Z,78.90
2017-10-12T22:02:04.779Z,79.00
2017-10-12T22:04:33.103Z,79.00
2017-10-12T22:07:02.847Z,78.80
2017-10-12T22:09:32.067Z,78.80
2017-10-12T22:12:00.754Z,78.70
2017-10-12T22:14:29.642Z,78.90
2017-10-12T22:16:58.322Z,78.90
2017-10-12T22:19:27.707Z,78.70
2017-10-12T22:21:56.291Z,78.60
2017-10-12T22:24:25.190Z,78.50
2017-10-12T22:26:53.892Z,78.30
2017-10-12T22:29:22.598Z,78.40
2017-10-12T22:31:51.246Z,78.40
2017-10-12T22:34:20.407Z,78.20
2017-10-12T22:36:50.159Z,77.80
2017-10-12T22:39:18.961Z,77.80
2017-10-12T22:41:48.057Z,77.80
2017-10-12T22:44:17.098Z,78.00
2017-10-12T22:46:46.044Z,78.00
2017-10-12T22:49:14.730Z,78.10
2017-10-12T22:51:43.602Z,78.10
2017-10-12T22:54:12.308Z,78.30
2017-10-12T22:56:41.199Z,78.10
2017-10-12T22:59:10.704Z,78.30
2017-10-12T23:01:40.212Z,78.30
2017-10-12T23:04:08.872Z,78.30
2017-10-12T23:06:37.706Z,78.40
2017-10-12T23:09:07.067Z,78.60
2017-10-12T23:11:36.183Z,78.70
2017-10-12T23:14:05.055Z,78.80
2017-10-12T23:16:34.254Z,79.10
2017-10-12T23:19:02.837Z,79.10
2017-10-12T23:21:32.158Z,79.50
2017-10-12T23:24:01.253Z,79.40
2017-10-12T23:26:30.119Z,79.60
2017-10-12T23:28:59.858Z,80.00
2017-10-12T23:31:29.279Z,79.90
2017-10-12T23:33:58.229Z,80.00
2017-10-12T23:36:26.703Z,80.00
2017-10-12T23:38:55.604Z,80.20
2017-10-12T23:41:24.996Z,80.30
2017-10-12T23:43:54.410Z,81.10
2017-10-12T23:46:23.422Z,80.50
2017-10-12T23:48:51.758Z,80.50
2017-10-12T23:51:20.471Z,80.60
2017-10-12T23:53:49.953Z,80.70
2017-10-12T23:56:18.955Z,80.90
2017-10-12T23:58:47.981Z,80.90
